Stations météo

réclame
Mon MeteoGroup
Oberstdorf, Allemagne (10948): Température de l'air & dewpoint: 09.09.2019 12:00:00 - 15.09.2019 12:00:00 (CEST)Oberstdorf, Allemagne (10948): Température de l'air 5cm & Température de l'air -5cm: 09.09.2019 12:00:00 - 15.09.2019 12:00:00 (CEST)Oberstdorf, Allemagne (10948): Température de l'air -20cm & Température de l'air -100cm: 09.09.2019 12:00:00 - 15.09.2019 12:00:00 (CEST)Oberstdorf, Allemagne (10948): Vitesse du vent & gusts: 09.09.2019 12:00:00 - 15.09.2019 12:00:00 (CEST)Oberstdorf, Allemagne (10948): Direction du vent: 09.09.2019 12:00:00 - 15.09.2019 12:00:00 (CEST)Oberstdorf, Allemagne (10948): visibility: 09.09.2019 12:00:00 - 15.09.2019 12:00:00 (CEST)Oberstdorf, Allemagne (10948): Ensoleillement: 09.09.2019 12:00:00 - 15.09.2019 12:00:00 (CEST)Oberstdorf, Allemagne (10948): Quantités de précipitations: 09.09.2019 12:00:00 - 15.09.2019 12:00:00 (CEST)
Date & Time tt [°C] td [°C] tt 5cm [°C] tt -5cm [°C] tt -20cm [°C] tt -100cm [°C] ff [km/h] ff [knt] fx [km/h] fx [knt] dd vv [km] sd [min] rr [mm]
15.09.2019 12:00:00 22,1 10,7 25,8 15,0 15,9 15,9 3 1 6 3 WSW 54 59 0,0
15.09.2019 11:00:00 20,0 9,5 22,1 14,7 16,0 15,9 2 1 6 3 S 70 60 0,0
15.09.2019 10:00:00 15,8 10,8 17,9 14,7 16,1 15,9 4 2 11 6 SE 39 60 0,0
15.09.2019 09:00:00 12,3 10,0 13,1 14,9 16,2 15,9 5 3 9 5 SSE 46 31 0,0
15.09.2019 08:00:00 8,8 8,5 7,5 15,1 16,3 15,9 6 3 10 5 S 46 0 0,0
15.09.2019 07:00:00 7,4 6,9 6,0 15,4 16,5 15,9 4 2 9 5 SSE 42 0 0,0
15.09.2019 06:00:00 8,6 8,5 7,1 15,7 16,6 15,9 3 1 9 5 E 10 0 0,0
15.09.2019 05:00:00 8,8 8,4 7,9 16,0 16,7 15,9 3 1 13 7 S 0,1 0 0,0
15.09.2019 04:00:00 10,4 10,4 8,8 16,2 16,7 15,9 7 4 9 5 SSE 24 0 0,0
15.09.2019 03:00:00 9,7 9,2 8,0 16,5 16,8 15,9 3 1 9 5 SSE 11 0 0,0
15.09.2019 02:00:00 11,3 11,3 10,2 16,8 16,8 15,9 9 5 11 6 SSE 20 0 0,0
15.09.2019 01:00:00 11,6 11,4 10,4 17,2 16,9 15,9 8 5 10 5 S 12 0 0,0
15.09.2019 00:00:00 11,7 11,5 10,5 17,5 16,8 15,9 5 3 8 4 SE 10 0 0,0
14.09.2019 23:00:00 13,0 12,7 11,4 17,7 16,8 15,9 4 2 10 6 S 10 0 0,0
14.09.2019 22:00:00 14,0 13,6 12,4 18,0 16,7 15,9 4 2 10 6 NE 17 0 0,0
14.09.2019 21:00:00 15,1 14,2 13,7 18,2 16,6 15,9 7 4 12 6 SSE 19 0 0,0
14.09.2019 20:00:00 16,6 14,9 15,3 18,2 16,5 15,9 9 5 12 6 SSE 30 0 0,0
14.09.2019 19:00:00 18,6 15,6 18,5 18,2 16,3 15,9 5 3 13 7 WSW 39 48 0,0
14.09.2019 18:00:00 21,1 15,3 21,2 18,0 16,1 15,9 10 5 21 11 NNW 49 3 0,0
14.09.2019 17:00:00 21,8 14,7 22,6 17,7 15,9 15,9 9 5 21 12 N 50 9 0,0
14.09.2019 16:00:00 22,9 15,6 25,2 17,2 15,8 15,8 13 7 24 13 NNW 40 60 0,0
14.09.2019 15:00:00 22,4 14,8 25,0 16,6 15,7 15,8 16 9 26 14 NNW 29 59 0,0
14.09.2019 14:00:00 21,5 14,0 26,3 16,0 15,6 15,8 7 4 19 10 N 26 60 0,0
14.09.2019 13:00:00 20,0 13,4 24,4 15,4 15,7 15,8 11 6 19 10 N 29 60 0,0
14.09.2019 12:00:00 19,4 11,9 24,3 14,9 15,7 15,8 3 2 11 6 N 33 60 0,0
14.09.2019 11:00:00 17,5 11,7 21,4 14,6 15,8 15,8 4 2 10 5 W 31 60 0,0
14.09.2019 10:00:00 15,3 10,7 16,9 14,6 15,9 15,8 2 1 5 3 W 23 60 0,0
14.09.2019 09:00:00 12,3 10,0 13,1 14,8 16,0 15,8 2 1 4 2 E 23 32 0,0
14.09.2019 08:00:00 8,8 8,8 8,4 15,0 16,2 15,8 0 0 6 3 N 12 0 0,0
14.09.2019 07:00:00 8,5 8,4 7,7 15,3 16,3 15,8 6 4 9 5 SSE 9 0 0,0
14.09.2019 06:00:00 8,1 7,8 7,0 15,6 16,4 15,8 4 2 9 5 S 5 0 0,0
14.09.2019 05:00:00 9,0 9,0 7,1 15,8 16,5 15,8 0 0 7 4 N 13 0 0,0
14.09.2019 04:00:00 9,2 9,0 7,7 16,1 16,5 15,8 3 2 8 4 ESE 3,8 0 0,0
14.09.2019 03:00:00 10,5 10,5 8,9 16,4 16,6 15,8 2 1 10 5 SW 16 0 0,0
14.09.2019 02:00:00 10,4 10,2 8,9 16,7 16,6 15,8 4 2 9 5 S 0,2 0 0,0
14.09.2019 01:00:00 11,1 10,8 9,5 17,0 16,6 15,8 4 2 8 4 SSE 6 0 0,0
14.09.2019 00:00:00 11,5 11,1 10,3 17,3 16,6 15,8 4 2 9 5 S 11 0 0,0
13.09.2019 23:00:00 12,9 12,9 10,8 17,6 16,6 15,8 5 3 10 5 SSE 12 0 0,0
13.09.2019 22:00:00 12,8 12,2 11,5 17,9 16,5 15,7 5 3 9 5 SSE 9 0 0,0
13.09.2019 21:00:00 14,4 13,1 12,8 18,1 16,3 15,7 6 3 16 8 S 37 0 0,0
13.09.2019 20:00:00 16,6 14,0 15,5 18,1 16,2 15,7 13 7 16 9 S 41 1 0,0
13.09.2019 19:00:00 18,1 14,6 18,4 18,0 16,0 15,7 10 6 14 8 S 51 60 0,0
13.09.2019 18:00:00 22,7 14,0 24,0 17,7 15,8 15,7 8 4 19 10 NW 52 60 0,0
13.09.2019 17:00:00 23,2 13,9 25,1 17,4 15,6 15,7 13 7 23 12 NNW 40 60 0,0
13.09.2019 16:00:00 23,8 14,4 26,5 16,9 15,4 15,7 14 8 23 12 N 34 60 0,0
13.09.2019 15:00:00 23,5 13,2 26,0 16,3 15,3 15,7 13 7 22 12 N 36 60 0,0
13.09.2019 14:00:00 23,3 12,1 27,4 15,6 15,3 15,7 11 6 17 9 NNW 44 60 0,0
13.09.2019 13:00:00 22,4 11,2 27,1 14,9 15,3 15,7 3 2 11 6 SSW 69 60 0,0
13.09.2019 12:00:00 20,6 9,2 25,5 14,4 15,4 15,7 4 2 13 7 WNW 46 60 0,0
13.09.2019 11:00:00 18,9 9,9 21,2 14,1 15,5 15,7 3 1 10 5 SE 59 60 0,0
13.09.2019 10:00:00 14,4 9,4 17,0 14,0 15,6 15,7 8 5 15 8 SSE 16 60 0,0
13.09.2019 09:00:00 12,3 9,8 13,2 14,2 15,7 15,7 5 3 10 5 SE 42 32 0,0
13.09.2019 08:00:00 7,5 7,4 6,2 14,5 15,8 15,7 6 3 8 5 S 7 0 0,0
13.09.2019 07:00:00 6,4 5,8 5,2 14,8 16,0 15,6 4 2 8 4 SSE 18 0 0,0
13.09.2019 06:00:00 8,3 8,3 5,9 15,1 16,1 15,6 5 3 9 5 S 0,3 0 0,0
13.09.2019 05:00:00 7,6 7,3 5,9 15,4 16,2 15,6 2 1 8 4 N 23 0 0,0
13.09.2019 04:00:00 7,8 7,8 6,3 15,7 16,3 15,6 3 2 6 4 SSE 11 0 0,0
13.09.2019 03:00:00 8,0 7,3 6,8 16,0 16,4 15,6 4 2 6 4 S 13 0 0,0
13.09.2019 02:00:00 9,6 9,2 7,4 16,4 16,4 15,6 5 3 9 5 SSE 25 0 0,0
13.09.2019 01:00:00 10,3 10,3 8,0 16,7 16,4 15,6 3 2 8 4 SSW 0,8 0 0,0
13.09.2019 00:00:00 11,0 10,5 8,8 17,0 16,4 15,6 3 2 10 5 SE 27 0 0,0
12.09.2019 23:00:00 12,1 11,1 10,2 17,4 16,4 15,6 6 3 16 9 S 37 0 0,0
12.09.2019 22:00:00 12,9 11,6 11,4 17,7 16,3 15,6 10 5 14 7 S 36 0 0,0
12.09.2019 21:00:00 12,3 11,5 10,8 17,9 16,2 15,6 5 3 14 8 S 25 0 0,0
12.09.2019 20:00:00 14,7 12,4 13,6 18,0 16,0 15,6 11 6 16 9 S 41 2 0,0
12.09.2019 19:00:00 17,2 13,0 17,6 18,0 15,9 15,6 9 5 19 10 S 50 60 0,0
12.09.2019 18:00:00 21,4 11,0 22,2 17,8 15,7 15,6 13 7 21 11 N 44 60 0,0
12.09.2019 17:00:00 22,1 11,0 23,6 17,4 15,5 15,6 13 7 18 10 NNW 36 60 0,0
12.09.2019 16:00:00 22,3 11,2 26,3 16,9 15,4 15,6 6 3 14 7 W 47 60 0,0
12.09.2019 15:00:00 21,8 10,2 26,2 16,4 15,2 15,6 8 4 22 12 N 28 60 0,0
12.09.2019 14:00:00 20,8 10,8 25,0 15,9 15,2 15,6 10 6 20 11 N 45 60 0,0
12.09.2019 13:00:00 19,2 9,0 23,0 15,4 15,1 15,6 7 4 16 8 NNE 46 59 0,0
12.09.2019 12:00:00 18,5 10,0 23,1 15,1 15,1 15,6 9 5 18 10 NNE 38 56 0,0
12.09.2019 11:00:00 18,1 10,2 21,5 14,8 15,2 15,6 6 4 15 8 N 47 53 0,0
12.09.2019 10:00:00 16,0 10,7 17,9 14,7 15,2 15,6 4 2 10 5 E 49 60 0,0
12.09.2019 09:00:00 14,0 10,8 15,3 14,7 15,3 15,5 5 3 7 4 SSE 35 10 0,0
12.09.2019 08:00:00 12,4 11,2 12,8 14,8 15,3 15,5 5 3 11 6 SSW 28 0 0,0
12.09.2019 07:00:00 11,8 11,2 11,7 14,9 15,3 15,5 2 1 6 3 S 19 0 0,0
12.09.2019 06:00:00 11,7 11,0 11,6 15,1 15,4 15,5 3 1 7 4 S 24 0 0,0
12.09.2019 05:00:00 11,9 10,9 11,7 15,2 15,4 15,5 2 1 9 5 SW 33 0 0,0
12.09.2019 04:00:00 12,0 11,0 11,8 15,4 15,5 15,5 5 3 9 5 S 31 0 0,0
12.09.2019 03:00:00 11,9 11,2 11,7 15,5 15,5 15,5 3 1 8 4 SE 24 0 0,0
12.09.2019 02:00:00 12,2 11,0 11,8 15,7 15,5 15,5 5 3 10 5 S 32 0 0,0
12.09.2019 01:00:00 13,1 11,0 12,6 15,9 15,5 15,5 5 3 14 7 SE 47 0 0,0
12.09.2019 00:00:00 12,8 11,4 12,5 16,0 15,4 15,5 7 4 13 7 SSE 37 0 0,0
11.09.2019 23:00:00 13,2 11,2 12,8 16,2 15,4 15,5 9 5 15 8 S 43 0 0,0
11.09.2019 22:00:00 13,3 11,5 13,0 16,4 15,3 15,5 3 2 12 6 S 53 0 0,0
11.09.2019 21:00:00 13,4 11,8 13,2 16,5 15,2 15,6 4 2 6 4 SE 40 0 0,0
11.09.2019 20:00:00 14,4 10,7 14,1 16,6 15,0 15,6 5 3 18 10 SSW 60 0 0,0
11.09.2019 19:00:00 16,9 9,6 16,3 16,6 14,8 15,6 8 5 29 16 W 66 42 0,0
11.09.2019 18:00:00 18,5 10,6 19,4 16,4 14,7 15,6 16 9 29 15 WNW 70 32 0,0
11.09.2019 17:00:00 18,6 10,9 18,4 16,1 14,5 15,6 13 7 23 13 N 66 41 0,0
11.09.2019 16:00:00 19,8 10,3 23,5 15,5 14,3 15,6 13 7 21 11 NNW 32 55 0,0
11.09.2019 15:00:00 19,3 8,8 22,5 15,0 14,2 15,6 5 3 19 10 N 65 56 0,0
11.09.2019 14:00:00 18,9 11,9 21,7 14,5 14,1 15,6 14 8 25 14 N 42 56 0,0
11.09.2019 13:00:00 18,5 11,4 22,2 13,9 14,1 15,6 15 8 24 13 N 25 60 0,0
11.09.2019 12:00:00 17,6 11,7 21,1 13,4 14,1 15,6 10 5 16 9 N 41 60 0,0
11.09.2019 11:00:00 16,2 9,6 19,9 13,1 14,2 15,6 3 2 8 4 NNW 55 60 0,0
11.09.2019 10:00:00 13,9 10,2 16,2 13,1 14,3 15,6 4 2 11 6 SE 38 60 0,0
11.09.2019 09:00:00 11,5 9,6 11,6 13,2 14,3 15,6 2 1 9 5 E 35 33 0,0
11.09.2019 08:00:00 7,9 7,5 7,1 13,3 14,4 15,6 4 2 5 3 SSE 16 0 0,0
11.09.2019 07:00:00 8,4 8,0 8,0 13,5 14,5 15,6 3 2 8 4 N 20 0 0,0
11.09.2019 06:00:00 8,7 8,5 8,2 13,7 14,6 15,6 3 1 5 3 ENE 29 0 0,0
11.09.2019 05:00:00 8,4 8,3 8,0 13,9 14,6 15,6 3 2 6 4 S 18 0 0,0
11.09.2019 04:00:00 8,7 8,7 7,1 14,1 14,7 15,6 4 2 6 3 SSE 41 0 0,0
11.09.2019 03:00:00 8,6 8,2 7,7 14,4 14,7 15,6 4 2 10 5 S 37 0 0,0
11.09.2019 02:00:00 8,4 8,2 7,3 14,7 14,7 15,6 7 4 10 5 S 17 0 0,0
11.09.2019 01:00:00 8,4 7,9 7,3 14,9 14,7 15,6 3 1 7 4 S 22 0 0,0
11.09.2019 00:00:00 10,4 9,7 9,4 15,1 14,6 15,7 7 4 10 5 SSE 42 0 0,0
10.09.2019 23:00:00 11,2 10,5 10,9 15,3 14,5 15,7 3 2 5 3 SSW 44 0 0,0
10.09.2019 22:00:00 11,4 10,7 11,2 15,4 14,4 15,7 2 1 7 4 W 39 0 0,0
10.09.2019 21:00:00 12,1 10,9 11,6 15,6 14,3 15,7 5 3 13 7 S 70 0 0,0
10.09.2019 20:00:00 13,3 10,8 12,7 15,6 14,1 15,7 11 6 14 8 S 70 8 0,0
10.09.2019 19:00:00 13,6 10,5 13,8 15,4 13,9 15,7 7 4 17 9 S 70 48 0,0
10.09.2019 18:00:00 18,4 9,7 19,5 15,2 13,7 15,7 10 6 19 10 NNW 50 60 0,0
10.09.2019 17:00:00 18,8 9,6 20,5 14,8 13,5 15,7 9 5 17 9 NNW 51 60 0,0
10.09.2019 16:00:00 18,6 9,2 21,0 14,3 13,3 15,7 10 5 18 10 NNW 59 59 0,0
10.09.2019 15:00:00 18,0 7,8 20,2 13,7 13,2 15,8 11 6 20 11 NNW 55 46 0,0
10.09.2019 14:00:00 18,0 8,8 21,3 13,0 13,1 15,8 11 6 20 11 NNW 39 60 0,0
10.09.2019 13:00:00 16,8 6,3 20,9 12,3 13,1 15,8 11 6 19 11 N 30 60 0,0
10.09.2019 12:00:00 15,2 5,8 20,7 11,8 13,1 15,8 3 2 8 4 WNW 70 60 0,0
10.09.2019 11:00:00 14,3 7,3 16,2 11,5 13,2 15,8 3 2 8 4 N 70 60 0,0
10.09.2019 10:00:00 10,9 6,6 12,5 11,4 13,3 15,8 0 0 5 3 N 63 60 0,0
10.09.2019 09:00:00 8,0 6,3 9,2 11,5 13,4 15,8 2 1 6 3 W 66 6 0,0
10.09.2019 08:00:00 6,5 5,8 6,4 11,7 13,5 15,8 0 0 9 5 N 63 0 0,0
10.09.2019 07:00:00 4,6 4,6 4,2 11,9 13,6 15,9 4 2 7 4 SSW 45 0 0,0
10.09.2019 06:00:00 4,1 3,8 3,4 12,1 13,6 15,9 3 2 12 6 S 3,5 0 0,0
10.09.2019 05:00:00 4,3 3,9 3,0 12,4 13,7 15,9 4 2 15 8 S 13 0 0,0
10.09.2019 04:00:00 6,3 6,0 5,3 12,6 13,7 15,9 9 5 13 7 S 59 0 0,0
10.09.2019 03:00:00 5,8 5,7 5,3 12,8 13,8 15,9 6 3 8 5 SSE 45 0 0,0
10.09.2019 02:00:00 5,6 5,2 4,6 13,0 13,8 15,9 4 2 7 4 SSE 32 0 0,0
10.09.2019 01:00:00 6,5 6,4 5,9 13,2 13,8 16,0 3 2 11 6 W 12 0 0,0
10.09.2019 00:00:00 7,0 6,4 6,0 13,4 13,7 16,0 5 3 10 5 S 45 0 0,0
09.09.2019 23:00:00 8,4 8,0 8,4 13,5 13,7 16,0 4 2 6 3 S 29 0 0,0
09.09.2019 22:00:00 8,8 8,1 8,9 13,6 13,6 16,0 3 2 5 3 S 52 0 0,0
09.09.2019 21:00:00 8,5 8,0 8,7 13,7 13,5 16,0 3 2 10 5 SW 44 0 0,0
09.09.2019 20:00:00 9,0 7,8 8,9 13,7 13,4 16,0 9 5 12 7 S 70 8 0,0
09.09.2019 19:00:00 10,1 8,4 10,6 13,5 13,3 16,1 8 5 11 6 S 70 60 0,0
09.09.2019 18:00:00 12,5 8,2 14,4 13,1 13,2 16,1 5 3 13 7 WNW 57 30 0,0
09.09.2019 17:00:00 11,6 6,5 12,8 12,6 13,1 16,1 5 3 11 6 SSE 70 36 0,0
09.09.2019 16:00:00 12,6 5,6 14,6 12,2 13,1 16,1 7 4 11 6 WSW 70 49 0,0
09.09.2019 15:00:00 11,0 6,0 13,4 11,8 13,1 16,1 6 3 11 6 SSW 70 24 0,0
09.09.2019 14:00:00 10,6 6,3 12,7 11,7 13,1 16,2 3 2 16 9 ESE 70 0 0,0
09.09.2019 13:00:00 8,4 5,6 8,9 11,6 13,2 16,2 12 6 17 9 SSE 70 0 0,1
09.09.2019 12:00:00 7,9 6,4 8,2 11,6 13,2 16,2 6 3 17 9 SSE 33 0 0,7

tt = Température de l'air
td = dewpoint
tt 5cm = Température de l'air 5cm
tt -5cm = Température de l'air -5cm
tt -20cm = Température de l'air -20cm
tt -100cm = Température de l'air -100cm
ff = Vitesse du vent
fx = gusts
dd = Direction du vent
vv = visibility
sd = Ensoleillement
rr = Quantités de précipitations

stations d'obs. à proximité